createdAt,value
2023-06-27T00:01:51.132Z,56.80
2023-06-27T00:04:40.940Z,56.86
2023-06-27T00:07:30.488Z,57.04
2023-06-27T00:10:20.299Z,57.11
2023-06-27T00:13:17.398Z,57.08
2023-06-27T00:16:08.095Z,57.03
2023-06-27T00:18:57.685Z,57.33
2023-06-27T00:21:46.954Z,57.35
2023-06-27T00:24:36.230Z,57.69
2023-06-27T00:27:25.746Z,57.52
2023-06-27T00:30:16.798Z,57.42
2023-06-27T00:33:06.307Z,57.41
2023-06-27T00:35:55.654Z,57.35
2023-06-27T00:38:44.958Z,57.20
2023-06-27T00:41:36.197Z,57.09
2023-06-27T00:44:25.603Z,57.06
2023-06-27T00:47:16.481Z,56.93
2023-06-27T00:50:07.167Z,57.01
2023-06-27T00:52:58.217Z,56.77
2023-06-27T00:55:47.568Z,56.90
2023-06-27T00:58:36.899Z,56.72
2023-06-27T01:01:26.624Z,56.89
2023-06-27T01:04:17.316Z,56.83
2023-06-27T01:07:16.895Z,57.00
2023-06-27T01:10:15.215Z,57.39
2023-06-27T01:13:10.980Z,57.44
2023-06-27T01:16:01.499Z,57.37
2023-06-27T01:18:51.148Z,57.43
2023-06-27T01:21:45.130Z,57.55
2023-06-27T01:24:38.041Z,57.74
2023-06-27T01:27:28.553Z,57.97
2023-06-27T01:30:19.087Z,57.81
2023-06-27T01:33:13.897Z,58.18
2023-06-27T01:36:12.051Z,58.16
2023-06-27T01:39:07.177Z,58.40
2023-06-27T01:42:06.652Z,58.31
2023-06-27T01:44:56.937Z,58.54
2023-06-27T01:47:46.938Z,58.82
2023-06-27T01:50:36.664Z,58.77
2023-06-27T01:53:27.865Z,58.63
2023-06-27T01:56:17.236Z,58.72
2023-06-27T01:59:10.491Z,58.83
2023-06-27T02:01:59.902Z,58.83
2023-06-27T02:04:50.649Z,58.91
2023-06-27T02:07:40.042Z,58.79
2023-06-27T02:10:32.733Z,58.62
2023-06-27T02:13:23.703Z,58.79
2023-06-27T02:16:14.718Z,58.93
2023-06-27T02:19:05.755Z,59.00
2023-06-27T02:21:55.179Z,59.29
2023-06-27T02:24:44.444Z,59.14
2023-06-27T02:27:33.935Z,58.97
2023-06-27T02:30:23.392Z,59.18
2023-06-27T02:33:14.065Z,59.45
2023-06-27T02:36:03.351Z,59.52
2023-06-27T02:38:56.086Z,59.65
2023-06-27T02:41:45.535Z,59.82
2023-06-27T02:44:34.808Z,59.98
2023-06-27T02:47:25.238Z,60.23
2023-06-27T02:50:16.175Z,60.17
2023-06-27T02:53:06.100Z,60.29
2023-06-27T02:55:55.691Z,60.35
2023-06-27T02:58:45.116Z,60.60
2023-06-27T03:01:34.935Z,60.63
2023-06-27T03:04:25.553Z,60.80
2023-06-27T03:07:17.697Z,60.94
2023-06-27T03:10:08.561Z,61.39
2023-06-27T03:12:57.900Z,61.39
2023-06-27T03:15:47.258Z,61.42
2023-06-27T03:18:36.547Z,61.35
2023-06-27T03:21:25.899Z,61.12
2023-06-27T03:24:17.599Z,61.21
2023-06-27T03:27:11.776Z,61.58
2023-06-27T03:30:03.742Z,61.78
2023-06-27T03:32:54.184Z,61.98
2023-06-27T03:35:44.600Z,62.35
2023-06-27T03:38:34.348Z,62.46
2023-06-27T03:41:25.277Z,62.20
2023-06-27T03:44:14.610Z,62.74
2023-06-27T03:47:06.427Z,62.15
2023-06-27T03:49:55.826Z,61.94
2023-06-27T03:52:45.459Z,62.03
2023-06-27T03:55:35.349Z,62.53
2023-06-27T03:58:26.400Z,63.20
2023-06-27T04:01:15.829Z,63.47
2023-06-27T04:04:05.411Z,64.59
2023-06-27T04:06:55.976Z,65.04
2023-06-27T04:09:45.359Z,65.42
2023-06-27T04:12:34.736Z,65.52
2023-06-27T04:15:26.128Z,65.59
2023-06-27T04:18:15.524Z,67.25
2023-06-27T04:21:05.045Z,66.85
2023-06-27T04:23:55.619Z,67.61
2023-06-27T04:26:45.010Z,68.54
2023-06-27T04:29:34.261Z,68.19
2023-06-27T04:32:25.222Z,70.49
2023-06-27T04:35:17.323Z,68.98
2023-06-27T04:38:08.136Z,69.29
2023-06-27T04:40:57.603Z,69.69
2023-06-27T04:43:47.128Z,69.95
2023-06-27T04:46:36.468Z,70.74
2023-06-27T04:49:27.114Z,69.84
2023-06-27T04:52:16.323Z,69.69
2023-06-27T04:55:06.386Z,69.51
2023-06-27T04:57:55.817Z,70.57
2023-06-27T05:00:45.715Z,70.44
2023-06-27T05:03:35.871Z,70.11
2023-06-27T05:06:27.951Z,70.33
2023-06-27T05:09:17.217Z,70.71
2023-06-27T05:12:07.718Z,70.68
2023-06-27T05:14:57.011Z,71.15
2023-06-27T05:17:54.805Z,73.28
2023-06-27T05:20:44.622Z,73.20
2023-06-27T05:23:35.388Z,73.64
2023-06-27T05:26:24.656Z,73.11
2023-06-27T05:29:13.910Z,73.75
2023-06-27T05:32:03.232Z,74.05
2023-06-27T05:34:52.603Z,74.42
2023-06-27T05:37:41.972Z,75.85
2023-06-27T05:40:32.652Z,75.15
2023-06-27T05:43:21.958Z,76.36
2023-06-27T05:46:11.278Z,76.61
2023-06-27T05:49:00.576Z,77.18
2023-06-27T05:51:49.844Z,77.05
2023-06-27T05:54:39.185Z,77.60
2023-06-27T05:57:29.911Z,77.62
2023-06-27T06:00:22.193Z,77.72
2023-06-27T06:03:11.641Z,77.66
2023-06-27T06:06:01.138Z,78.03
2023-06-27T06:08:50.523Z,78.52
2023-06-27T06:11:39.802Z,78.18
2023-06-27T06:14:30.742Z,77.99
2023-06-27T06:17:20.148Z,78.02
2023-06-27T06:20:12.155Z,77.84
2023-06-27T06:23:01.515Z,77.76
2023-06-27T06:25:51.219Z,77.68
2023-06-27T06:28:40.614Z,77.78
2023-06-27T06:31:31.509Z,77.57
2023-06-27T06:34:20.861Z,76.98
2023-06-27T06:37:10.298Z,76.90
2023-06-27T06:39:59.629Z,76.88
2023-06-27T06:42:49.098Z,76.50
2023-06-27T06:45:38.460Z,76.86
2023-06-27T06:48:29.432Z,76.68
2023-06-27T06:51:18.828Z,76.98
2023-06-27T06:54:08.115Z,76.54
2023-06-27T06:56:57.397Z,76.29
2023-06-27T06:59:47.601Z,76.84
2023-06-27T07:02:37.188Z,76.78
2023-06-27T07:05:27.911Z,76.59
2023-06-27T07:08:17.316Z,76.48
2023-06-27T07:11:06.651Z,77.02
2023-06-27T07:13:56.034Z,76.94
2023-06-27T07:16:45.394Z,76.73
2023-06-27T07:19:34.690Z,77.13
2023-06-27T07:22:25.404Z,76.53
2023-06-27T07:25:14.818Z,76.89
2023-06-27T07:28:04.557Z,76.65
2023-06-27T07:30:53.980Z,77.06
2023-06-27T07:33:43.441Z,76.84
2023-06-27T07:36:32.832Z,76.48
2023-06-27T07:39:23.892Z,76.67
2023-06-27T07:42:13.713Z,76.56
2023-06-27T07:45:03.028Z,76.45
2023-06-27T07:47:53.026Z,76.39
2023-06-27T07:50:42.689Z,76.21
2023-06-27T07:53:32.240Z,76.27
2023-06-27T07:56:23.138Z,76.18
2023-06-27T07:59:14.652Z,76.22
2023-06-27T08:02:05.471Z,76.03
2023-06-27T08:04:54.871Z,75.70
2023-06-27T08:07:44.194Z,75.22
2023-06-27T08:10:33.466Z,75.19
2023-06-27T08:13:25.572Z,74.82
2023-06-27T08:16:15.017Z,74.79
2023-06-27T08:19:04.488Z,74.64
2023-06-27T08:21:53.802Z,74.17
2023-06-27T08:24:43.109Z,73.49
2023-06-27T08:27:32.796Z,73.40
2023-06-27T08:30:23.707Z,72.82
2023-06-27T08:33:13.125Z,72.29
2023-06-27T08:36:02.719Z,71.80
2023-06-27T08:38:52.052Z,71.31
2023-06-27T08:41:41.455Z,70.82
2023-06-27T08:44:30.917Z,71.13
2023-06-27T08:47:24.534Z,70.81
2023-06-27T08:50:16.231Z,70.98
2023-06-27T08:53:09.789Z,70.85
2023-06-27T08:56:04.394Z,71.31
2023-06-27T08:59:01.465Z,71.43
2023-06-27T09:01:52.212Z,71.16
2023-06-27T09:04:44.140Z,71.49
2023-06-27T09:07:34.581Z,71.72
2023-06-27T09:10:24.463Z,71.76
2023-06-27T09:13:14.971Z,71.79
2023-06-27T09:16:04.346Z,71.55
2023-06-27T09:18:55.934Z,71.62
2023-06-27T09:21:50.900Z,71.34
2023-06-27T09:24:43.361Z,71.45
2023-06-27T09:27:35.454Z,71.11
2023-06-27T09:30:25.839Z,70.85
2023-06-27T09:33:21.475Z,70.93
2023-06-27T09:36:10.959Z,70.77
2023-06-27T09:39:05.099Z,70.65
2023-06-27T09:41:54.697Z,70.41
2023-06-27T09:44:44.264Z,70.24
2023-06-27T09:47:33.927Z,69.97
2023-06-27T09:50:27.755Z,68.85
2023-06-27T09:53:17.180Z,69.03
2023-06-27T09:56:08.075Z,68.01
2023-06-27T09:59:00.180Z,67.93
2023-06-27T10:01:55.173Z,67.75
2023-06-27T10:04:44.869Z,67.47
2023-06-27T10:07:34.650Z,66.79
2023-06-27T10:10:28.351Z,66.52
2023-06-27T10:13:19.505Z,66.23
2023-06-27T10:16:10.143Z,65.50
2023-06-27T10:18:59.711Z,65.42
2023-06-27T10:21:49.722Z,65.07
2023-06-27T10:24:43.086Z,64.52
2023-06-27T10:27:36.967Z,64.39
2023-06-27T10:30:28.246Z,63.33
2023-06-27T10:33:29.370Z,62.83
2023-06-27T10:36:19.086Z,62.88
2023-06-27T10:39:30.655Z,62.66
2023-06-27T10:42:31.023Z,62.85
2023-06-27T10:45:20.398Z,62.75
2023-06-27T10:48:11.186Z,63.10
2023-06-27T10:51:07.957Z,63.24
2023-06-27T10:54:18.940Z,63.24
2023-06-27T10:57:08.343Z,63.33
2023-06-27T11:00:14.999Z,63.18
2023-06-27T11:03:07.933Z,63.25
2023-06-27T11:06:02.330Z,62.72
2023-06-27T11:08:58.055Z,63.00
2023-06-27T11:11:58.171Z,61.72
2023-06-27T11:14:49.335Z,61.91
2023-06-27T11:17:42.077Z,61.37
2023-06-27T11:20:31.854Z,61.37
2023-06-27T11:23:23.690Z,61.06
2023-06-27T11:26:13.040Z,61.35
2023-06-27T11:29:05.380Z,61.53
2023-06-27T11:31:56.564Z,61.79
2023-06-27T11:34:45.957Z,62.11
2023-06-27T11:37:35.409Z,62.21
2023-06-27T11:40:27.045Z,61.52
2023-06-27T11:43:16.821Z,61.34
2023-06-27T11:46:06.123Z,60.83
2023-06-27T11:48:55.518Z,60.88
2023-06-27T11:51:45.279Z,60.51
2023-06-27T11:54:35.556Z,60.73
2023-06-27T11:57:26.451Z,60.56
2023-06-27T12:00:20.806Z,60.42
2023-06-27T12:03:11.641Z,60.74
2023-06-27T12:06:01.208Z,61.27
2023-06-27T12:08:50.644Z,61.41
2023-06-27T12:11:40.073Z,61.82
2023-06-27T12:14:31.091Z,61.67
2023-06-27T12:17:23.857Z,61.23
2023-06-27T12:20:13.881Z,60.92
2023-06-27T12:23:03.293Z,60.82
2023-06-27T12:25:52.816Z,60.00
2023-06-27T12:28:57.710Z,59.76
2023-06-27T12:31:48.456Z,59.71
2023-06-27T12:34:37.824Z,59.26
2023-06-27T12:37:28.643Z,58.99
2023-06-27T12:40:19.310Z,58.55
2023-06-27T12:43:09.053Z,58.33
2023-06-27T12:46:02.952Z,57.64
2023-06-27T12:48:53.957Z,57.81
2023-06-27T12:51:43.298Z,58.00
2023-06-27T12:54:32.606Z,58.02
2023-06-27T12:57:21.948Z,58.02
2023-06-27T13:00:13.377Z,58.11
2023-06-27T13:03:15.848Z,58.59
2023-06-27T13:06:08.365Z,58.10
2023-06-27T13:08:57.754Z,57.75
2023-06-27T13:11:47.072Z,56.61
2023-06-27T13:14:36.373Z,56.29
2023-06-27T13:17:25.926Z,55.03
2023-06-27T13:20:15.992Z,54.62
2023-06-27T13:23:07.610Z,54.85
2023-06-27T13:25:57.098Z,54.80
2023-06-27T13:28:46.486Z,55.16
2023-06-27T13:31:36.123Z,55.42
2023-06-27T13:34:25.641Z,55.31
2023-06-27T13:37:15.040Z,55.49
2023-06-27T13:40:07.313Z,55.78
2023-06-27T13:42:56.615Z,55.78
2023-06-27T13:45:48.188Z,55.55
2023-06-27T13:48:37.741Z,54.63
2023-06-27T13:51:26.992Z,53.45
2023-06-27T13:54:16.229Z,52.59
2023-06-27T13:57:07.199Z,51.68
2023-06-27T13:59:56.562Z,51.72
2023-06-27T14:02:45.932Z,52.11
2023-06-27T14:05:55.442Z,50.99
2023-06-27T14:08:45.021Z,51.43
2023-06-27T14:11:34.284Z,51.04
2023-06-27T14:14:25.743Z,51.59
2023-06-27T14:17:15.075Z,52.01
2023-06-27T14:20:04.881Z,51.87
2023-06-27T14:22:55.170Z,52.08
2023-06-27T14:25:44.636Z,51.03
2023-06-27T14:28:34.318Z,50.38
2023-06-27T14:31:26.157Z,49.80
2023-06-27T14:34:15.609Z,50.21
2023-06-27T14:37:05.293Z,50.31
2023-06-27T14:39:56.294Z,49.90
2023-06-27T14:42:45.694Z,49.31
2023-06-27T14:45:35.091Z,48.91
2023-06-27T14:48:25.802Z,48.43
2023-06-27T14:51:15.108Z,48.73
2023-06-27T14:54:04.554Z,48.31
2023-06-27T14:56:53.904Z,47.52
2023-06-27T14:59:43.248Z,47.49
2023-06-27T15:02:32.608Z,46.32
2023-06-27T15:05:29.291Z,46.21
2023-06-27T15:08:18.745Z,46.34
2023-06-27T15:11:08.158Z,46.56
2023-06-27T15:14:00.235Z,47.17
2023-06-27T15:16:49.613Z,47.75
2023-06-27T15:19:38.941Z,48.15
2023-06-27T15:22:29.779Z,48.41
2023-06-27T15:25:19.115Z,48.81
2023-06-27T15:28:08.488Z,49.12
2023-06-27T15:30:57.875Z,49.84
2023-06-27T15:33:47.606Z,49.49
2023-06-27T15:36:37.643Z,49.96
2023-06-27T15:39:29.097Z,50.00
2023-06-27T15:42:18.470Z,49.97
2023-06-27T15:45:10.142Z,50.32
2023-06-27T15:48:00.267Z,50.36
2023-06-27T15:50:49.830Z,51.10
2023-06-27T15:53:39.155Z,51.77
2023-06-27T15:56:29.919Z,52.55
2023-06-27T15:59:19.320Z,53.19
2023-06-27T16:02:08.858Z,53.25
2023-06-27T16:04:58.518Z,53.31
2023-06-27T16:07:48.268Z,52.73
2023-06-27T16:10:37.694Z,53.43
2023-06-27T16:13:28.532Z,53.74
2023-06-27T16:16:18.164Z,54.14
2023-06-27T16:19:08.284Z,54.66
2023-06-27T16:21:57.583Z,54.89
2023-06-27T16:24:46.983Z,56.27
2023-06-27T16:27:36.354Z,56.15
2023-06-27T16:30:27.152Z,56.51
2023-06-27T16:33:16.584Z,56.70
2023-06-27T16:36:06.391Z,57.41
2023-06-27T16:38:55.665Z,57.52
2023-06-27T16:41:44.980Z,57.99
2023-06-27T16:44:34.403Z,58.04
2023-06-27T16:47:25.943Z,58.15
2023-06-27T16:50:15.476Z,58.27
2023-06-27T16:53:04.856Z,58.36
2023-06-27T16:55:54.215Z,58.40
2023-06-27T16:58:43.568Z,58.40
2023-06-27T17:01:33.381Z,58.71
2023-06-27T17:04:24.212Z,58.59
2023-06-27T17:07:13.568Z,58.46
2023-06-27T17:10:03.001Z,58.93
2023-06-27T17:12:52.567Z,58.56
2023-06-27T17:15:43.730Z,58.94
2023-06-27T17:18:33.244Z,58.75
2023-06-27T17:21:24.065Z,58.91
2023-06-27T17:24:13.405Z,59.04
2023-06-27T17:27:05.910Z,59.37
2023-06-27T17:29:55.295Z,59.39
2023-06-27T17:32:47.130Z,59.37
2023-06-27T17:35:36.660Z,59.39
2023-06-27T17:38:27.656Z,59.38
2023-06-27T17:41:16.971Z,59.75
2023-06-27T17:44:06.597Z,59.83
2023-06-27T17:46:56.125Z,60.06
2023-06-27T17:49:45.561Z,60.06
2023-06-27T17:52:35.009Z,60.60
2023-06-27T17:55:25.943Z,60.55
2023-06-27T17:58:15.360Z,60.30
2023-06-27T18:01:06.148Z,60.82
2023-06-27T18:03:55.565Z,61.05
2023-06-27T18:06:45.086Z,61.53
2023-06-27T18:09:34.552Z,61.33
2023-06-27T18:12:30.907Z,61.39
2023-06-27T18:15:20.222Z,61.26
2023-06-27T18:18:10.997Z,61.60
2023-06-27T18:21:00.372Z,61.92
2023-06-27T18:23:49.669Z,61.87
2023-06-27T18:26:39.008Z,62.18
2023-06-27T18:29:29.759Z,62.64
2023-06-27T18:32:19.403Z,62.35
2023-06-27T18:35:09.728Z,62.53
2023-06-27T18:37:59.712Z,62.59
2023-06-27T18:40:49.197Z,62.80
2023-06-27T18:43:38.716Z,63.50
2023-06-27T18:46:31.059Z,64.24
2023-06-27T18:49:20.483Z,64.46
2023-06-27T18:52:10.608Z,64.57
2023-06-27T18:55:00.465Z,65.17
2023-06-27T18:57:50.438Z,65.32
2023-06-27T19:00:41.352Z,65.02
2023-06-27T19:03:32.958Z,65.13
2023-06-27T19:06:31.161Z,65.76
2023-06-27T19:09:21.634Z,65.59
2023-06-27T19:12:11.876Z,65.55
2023-06-27T19:15:01.314Z,65.62
2023-06-27T19:17:52.153Z,65.62
2023-06-27T19:20:43.636Z,65.99
2023-06-27T19:23:33.928Z,66.47
2023-06-27T19:26:23.493Z,66.96
2023-06-27T19:29:13.495Z,67.64
2023-06-27T19:32:02.860Z,67.39
2023-06-27T19:34:52.208Z,67.68
2023-06-27T19:37:42.975Z,67.57
2023-06-27T19:40:32.314Z,67.82
2023-06-27T19:43:21.706Z,68.19
2023-06-27T19:46:11.047Z,68.79
2023-06-27T19:49:00.438Z,68.74
2023-06-27T19:51:49.720Z,68.98
2023-06-27T19:54:40.468Z,68.64
2023-06-27T19:57:29.845Z,69.38
2023-06-27T20:00:20.297Z,69.76
2023-06-27T20:03:09.747Z,69.79
2023-06-27T20:05:59.221Z,69.48
2023-06-27T20:08:49.377Z,69.60
2023-06-27T20:11:40.040Z,69.51
2023-06-27T20:14:29.327Z,69.67
2023-06-27T20:17:18.932Z,69.66
2023-06-27T20:20:10.256Z,69.77
2023-06-27T20:22:59.835Z,69.97
2023-06-27T20:25:49.488Z,70.11
2023-06-27T20:28:40.297Z,70.00
2023-06-27T20:31:29.783Z,70.34
2023-06-27T20:34:21.964Z,70.34
2023-06-27T20:37:11.403Z,70.48
2023-06-27T20:40:00.888Z,70.82
2023-06-27T20:42:50.209Z,70.67
2023-06-27T20:45:42.051Z,71.21
2023-06-27T20:48:31.544Z,71.11
2023-06-27T20:51:21.540Z,72.22
2023-06-27T20:54:10.853Z,71.73
2023-06-27T20:57:00.238Z,72.13
2023-06-27T20:59:49.545Z,72.29
2023-06-27T21:02:40.531Z,72.37
2023-06-27T21:05:29.922Z,72.45
2023-06-27T21:08:19.528Z,72.83
2023-06-27T21:11:08.831Z,72.34
2023-06-27T21:13:58.279Z,72.44
2023-06-27T21:16:47.655Z,72.37
2023-06-27T21:19:38.854Z,72.31
2023-06-27T21:22:28.189Z,72.52
2023-06-27T21:25:18.250Z,72.56
2023-06-27T21:28:07.675Z,72.68
2023-06-27T21:30:57.053Z,72.53
2023-06-27T21:33:47.516Z,73.20
2023-06-27T21:36:38.315Z,73.20
2023-06-27T21:39:27.683Z,73.10
2023-06-27T21:42:17.171Z,73.68
2023-06-27T21:45:07.773Z,73.34
2023-06-27T21:47:57.171Z,73.19
2023-06-27T21:50:46.931Z,73.50
2023-06-27T21:53:39.536Z,74.00
2023-06-27T21:56:28.844Z,73.73
2023-06-27T21:59:18.403Z,73.60
2023-06-27T22:02:08.200Z,73.46
2023-06-27T22:04:57.566Z,73.76
2023-06-27T22:07:50.521Z,73.53
2023-06-27T22:10:42.077Z,73.16
2023-06-27T22:13:32.006Z,73.37
2023-06-27T22:16:22.606Z,73.88
2023-06-27T22:19:12.415Z,74.04
2023-06-27T22:22:01.983Z,74.24
2023-06-27T22:24:54.320Z,74.48
2023-06-27T22:27:45.458Z,74.46
2023-06-27T22:30:35.095Z,74.32
2023-06-27T22:33:24.493Z,74.31
2023-06-27T22:36:13.837Z,74.44
2023-06-27T22:39:03.279Z,74.85
2023-06-27T22:41:52.523Z,75.02
2023-06-27T22:44:43.285Z,75.17
2023-06-27T22:47:33.267Z,75.25
2023-06-27T22:50:22.723Z,75.59
2023-06-27T22:53:12.703Z,75.96
2023-06-27T22:56:02.027Z,75.89
2023-06-27T22:58:51.532Z,75.54
2023-06-27T23:01:42.221Z,75.68
2023-06-27T23:04:31.722Z,75.67
2023-06-27T23:07:21.110Z,75.42
2023-06-27T23:13:00.654Z,75.08
2023-06-27T23:15:50.080Z,75.22
2023-06-27T23:18:42.091Z,75.00
2023-06-27T23:21:34.232Z,74.99
2023-06-27T23:24:28.296Z,74.74
2023-06-27T23:27:17.721Z,74.75
2023-06-27T23:30:09.666Z,74.79
2023-06-27T23:32:59.039Z,75.05
2023-06-27T23:35:50.437Z,75.10
2023-06-27T23:38:39.834Z,75.25
2023-06-27T23:41:29.283Z,75.18
2023-06-27T23:44:18.556Z,75.64
2023-06-27T23:47:08.680Z,75.94
2023-06-27T23:49:58.082Z,75.55
2023-06-27T23:52:48.972Z,75.41
2023-06-27T23:55:38.528Z,75.24
